sensor_id;sensor_type;location;lat;lon;timestamp;P1;durP1;ratioP1;P2;durP2;ratioP2
12896;SDS011;6516;35.028;32.372;2022-11-09T00:00:50;18.08;;;11.63;;
12896;SDS011;6516;35.028;32.372;2022-11-09T00:03:19;16.60;;;11.13;;
12896;SDS011;6516;35.028;32.372;2022-11-09T00:05:53;19.10;;;11.27;;
12896;SDS011;6516;35.028;32.372;2022-11-09T00:08:23;18.50;;;11.35;;
12896;SDS011;6516;35.028;32.372;2022-11-09T00:10:52;14.63;;;10.63;;
12896;SDS011;6516;35.028;32.372;2022-11-09T00:13:20;17.75;;;11.45;;
12896;SDS011;6516;35.028;32.372;2022-11-09T00:15:48;16.25;;;10.90;;
12896;SDS011;6516;35.028;32.372;2022-11-09T00:18:15;17.87;;;10.93;;
12896;SDS011;6516;35.028;32.372;2022-11-09T00:20:43;18.25;;;12.02;;
12896;SDS011;6516;35.028;32.372;2022-11-09T00:23:11;17.88;;;11.40;;
12896;SDS011;6516;35.028;32.372;2022-11-09T00:25:40;18.27;;;11.27;;
12896;SDS011;6516;35.028;32.372;2022-11-09T00:28:08;16.15;;;11.20;;
12896;SDS011;6516;35.028;32.372;2022-11-09T00:30:36;19.47;;;11.47;;
12896;SDS011;6516;35.028;32.372;2022-11-09T00:33:04;19.30;;;11.75;;
12896;SDS011;6516;35.028;32.372;2022-11-09T00:35:32;18.88;;;11.65;;
12896;SDS011;6516;35.028;32.372;2022-11-09T00:37:59;22.33;;;12.60;;
12896;SDS011;6516;35.028;32.372;2022-11-09T00:40:27;19.17;;;11.98;;
12896;SDS011;6516;35.028;32.372;2022-11-09T00:42:56;18.83;;;12.20;;
12896;SDS011;6516;35.028;32.372;2022-11-09T00:45:24;18.67;;;12.27;;
12896;SDS011;6516;35.028;32.372;2022-11-09T00:47:52;22.85;;;12.95;;
12896;SDS011;6516;35.028;32.372;2022-11-09T00:50:20;19.00;;;13.25;;
12896;SDS011;6516;35.028;32.372;2022-11-09T00:52:47;20.35;;;12.93;;
12896;SDS011;6516;35.028;32.372;2022-11-09T00:55:15;19.13;;;12.87;;
12896;SDS011;6516;35.028;32.372;2022-11-09T00:57:47;20.85;;;12.32;;
12896;SDS011;6516;35.028;32.372;2022-11-09T01:00:17;20.15;;;12.60;;
12896;SDS011;6516;35.028;32.372;2022-11-09T01:02:48;18.98;;;11.95;;
12896;SDS011;6516;35.028;32.372;2022-11-09T01:05:16;19.58;;;13.30;;
12896;SDS011;6516;35.028;32.372;2022-11-09T01:07:44;20.80;;;12.60;;
12896;SDS011;6516;35.028;32.372;2022-11-09T01:10:12;19.73;;;12.45;;
12896;SDS011;6516;35.028;32.372;2022-11-09T01:12:39;20.85;;;13.02;;
12896;SDS011;6516;35.028;32.372;2022-11-09T01:15:07;21.55;;;12.57;;
12896;SDS011;6516;35.028;32.372;2022-11-09T01:17:37;22.25;;;14.02;;
12896;SDS011;6516;35.028;32.372;2022-11-09T01:20:05;18.30;;;12.87;;
12896;SDS011;6516;35.028;32.372;2022-11-09T01:22:34;19.90;;;12.80;;
12896;SDS011;6516;35.028;32.372;2022-11-09T01:25:02;21.27;;;12.95;;
12896;SDS011;6516;35.028;32.372;2022-11-09T01:27:31;16.70;;;11.30;;
12896;SDS011;6516;35.028;32.372;2022-11-09T01:29:59;18.15;;;12.60;;
12896;SDS011;6516;35.028;32.372;2022-11-09T01:32:27;23.00;;;13.33;;
12896;SDS011;6516;35.028;32.372;2022-11-09T01:34:59;19.95;;;12.43;;
12896;SDS011;6516;35.028;32.372;2022-11-09T01:37:27;19.27;;;12.52;;
12896;SDS011;6516;35.028;32.372;2022-11-09T01:39:55;19.35;;;13.20;;
12896;SDS011;6516;35.028;32.372;2022-11-09T01:42:23;18.95;;;12.82;;
12896;SDS011;6516;35.028;32.372;2022-11-09T01:47:48;20.77;;;12.57;;
12896;SDS011;6516;35.028;32.372;2022-11-09T01:50:26;21.55;;;12.80;;
12896;SDS011;6516;35.028;32.372;2022-11-09T01:53:05;19.85;;;12.60;;
12896;SDS011;6516;35.028;32.372;2022-11-09T01:55:41;20.38;;;12.63;;
12896;SDS011;6516;35.028;32.372;2022-11-09T01:58:11;18.17;;;12.40;;
12896;SDS011;6516;35.028;32.372;2022-11-09T02:00:44;18.92;;;12.25;;
12896;SDS011;6516;35.028;32.372;2022-11-09T02:03:16;16.80;;;11.70;;
12896;SDS011;6516;35.028;32.372;2022-11-09T02:05:51;19.52;;;12.43;;
12896;SDS011;6516;35.028;32.372;2022-11-09T02:08:19;23.10;;;12.85;;
12896;SDS011;6516;35.028;32.372;2022-11-09T02:10:52;18.70;;;12.70;;
12896;SDS011;6516;35.028;32.372;2022-11-09T02:13:29;19.98;;;12.23;;
12896;SDS011;6516;35.028;32.372;2022-11-09T02:15:58;18.17;;;12.40;;
12896;SDS011;6516;35.028;32.372;2022-11-09T02:18:26;19.08;;;12.88;;
12896;SDS011;6516;35.028;32.372;2022-11-09T02:20:57;20.52;;;12.27;;
12896;SDS011;6516;35.028;32.372;2022-11-09T02:23:25;20.93;;;12.60;;
12896;SDS011;6516;35.028;32.372;2022-11-09T02:25:55;18.92;;;12.77;;
12896;SDS011;6516;35.028;32.372;2022-11-09T02:28:26;24.90;;;12.88;;
12896;SDS011;6516;35.028;32.372;2022-11-09T02:30:54;19.75;;;12.98;;
12896;SDS011;6516;35.028;32.372;2022-11-09T02:33:24;18.05;;;12.57;;
12896;SDS011;6516;35.028;32.372;2022-11-09T02:35:52;18.73;;;12.73;;
12896;SDS011;6516;35.028;32.372;2022-11-09T02:38:21;18.23;;;12.30;;
12896;SDS011;6516;35.028;32.372;2022-11-09T02:40:48;20.20;;;12.85;;
12896;SDS011;6516;35.028;32.372;2022-11-09T02:43:18;18.00;;;11.48;;
12896;SDS011;6516;35.028;32.372;2022-11-09T02:45:46;18.45;;;12.07;;
12896;SDS011;6516;35.028;32.372;2022-11-09T02:48:14;21.23;;;12.87;;
12896;SDS011;6516;35.028;32.372;2022-11-09T02:50:42;18.05;;;12.05;;
12896;SDS011;6516;35.028;32.372;2022-11-09T02:53:09;19.80;;;12.48;;
12896;SDS011;6516;35.028;32.372;2022-11-09T02:55:38;21.75;;;13.07;;
12896;SDS011;6516;35.028;32.372;2022-11-09T02:58:06;18.60;;;12.50;;
12896;SDS011;6516;35.028;32.372;2022-11-09T03:00:34;23.73;;;12.90;;
12896;SDS011;6516;35.028;32.372;2022-11-09T03:03:02;18.85;;;12.65;;
12896;SDS011;6516;35.028;32.372;2022-11-09T03:05:30;21.67;;;12.43;;
12896;SDS011;6516;35.028;32.372;2022-11-09T03:07:58;19.52;;;12.65;;
12896;SDS011;6516;35.028;32.372;2022-11-09T03:10:27;18.92;;;12.07;;
12896;SDS011;6516;35.028;32.372;2022-11-09T03:12:56;18.17;;;12.37;;
12896;SDS011;6516;35.028;32.372;2022-11-09T03:15:24;18.08;;;11.57;;
12896;SDS011;6516;35.028;32.372;2022-11-09T03:17:51;19.70;;;12.45;;
12896;SDS011;6516;35.028;32.372;2022-11-09T03:20:19;19.40;;;12.10;;
12896;SDS011;6516;35.028;32.372;2022-11-09T03:22:47;19.70;;;12.90;;
12896;SDS011;6516;35.028;32.372;2022-11-09T03:25:15;22.00;;;11.90;;
12896;SDS011;6516;35.028;32.372;2022-11-09T03:27:43;19.10;;;12.25;;
12896;SDS011;6516;35.028;32.372;2022-11-09T03:30:12;18.48;;;12.07;;
12896;SDS011;6516;35.028;32.372;2022-11-09T03:32:43;17.45;;;12.07;;
12896;SDS011;6516;35.028;32.372;2022-11-09T03:35:11;17.35;;;12.63;;
12896;SDS011;6516;35.028;32.372;2022-11-09T03:37:39;19.37;;;12.17;;
12896;SDS011;6516;35.028;32.372;2022-11-09T03:40:07;18.15;;;12.27;;
12896;SDS011;6516;35.028;32.372;2022-11-09T03:42:36;21.67;;;13.27;;
12896;SDS011;6516;35.028;32.372;2022-11-09T03:45:09;19.55;;;12.25;;
12896;SDS011;6516;35.028;32.372;2022-11-09T03:47:39;18.42;;;12.68;;
12896;SDS011;6516;35.028;32.372;2022-11-09T03:50:07;19.77;;;12.83;;
12896;SDS011;6516;35.028;32.372;2022-11-09T03:52:36;19.05;;;12.70;;
12896;SDS011;6516;35.028;32.372;2022-11-09T03:55:05;18.17;;;12.48;;
12896;SDS011;6516;35.028;32.372;2022-11-09T03:57:33;20.02;;;13.13;;
12896;SDS011;6516;35.028;32.372;2022-11-09T04:00:01;20.50;;;13.02;;
12896;SDS011;6516;35.028;32.372;2022-11-09T04:02:31;20.00;;;11.93;;
12896;SDS011;6516;35.028;32.372;2022-11-09T04:04:58;21.80;;;11.93;;
12896;SDS011;6516;35.028;32.372;2022-11-09T04:07:26;19.75;;;12.40;;
12896;SDS011;6516;35.028;32.372;2022-11-09T04:09:54;21.08;;;12.73;;
12896;SDS011;6516;35.028;32.372;2022-11-09T04:12:22;22.65;;;12.27;;
12896;SDS011;6516;35.028;32.372;2022-11-09T04:14:50;18.97;;;12.00;;
12896;SDS011;6516;35.028;32.372;2022-11-09T04:17:18;18.58;;;11.90;;
12896;SDS011;6516;35.028;32.372;2022-11-09T04:19:47;17.48;;;11.82;;
12896;SDS011;6516;35.028;32.372;2022-11-09T04:22:15;20.80;;;12.50;;
12896;SDS011;6516;35.028;32.372;2022-11-09T04:24:43;21.15;;;12.30;;
12896;SDS011;6516;35.028;32.372;2022-11-09T04:27:11;20.87;;;13.00;;
12896;SDS011;6516;35.028;32.372;2022-11-09T04:29:38;17.92;;;11.73;;
12896;SDS011;6516;35.028;32.372;2022-11-09T04:32:06;19.17;;;11.82;;
12896;SDS011;6516;35.028;32.372;2022-11-09T04:34:34;18.75;;;11.30;;
12896;SDS011;6516;35.028;32.372;2022-11-09T04:37:04;18.00;;;11.25;;
12896;SDS011;6516;35.028;32.372;2022-11-09T04:39:31;17.87;;;11.33;;
12896;SDS011;6516;35.028;32.372;2022-11-09T04:41:59;16.83;;;11.23;;
12896;SDS011;6516;35.028;32.372;2022-11-09T04:44:27;15.95;;;10.35;;
12896;SDS011;6516;35.028;32.372;2022-11-09T04:46:55;17.42;;;10.63;;
12896;SDS011;6516;35.028;32.372;2022-11-09T04:49:23;15.75;;;10.77;;
12896;SDS011;6516;35.028;32.372;2022-11-09T04:51:50;21.80;;;10.53;;
12896;SDS011;6516;35.028;32.372;2022-11-09T04:54:20;14.98;;;10.38;;
12896;SDS011;6516;35.028;32.372;2022-11-09T04:56:48;15.27;;;10.70;;
12896;SDS011;6516;35.028;32.372;2022-11-09T04:59:15;13.32;;;9.73;;
12896;SDS011;6516;35.028;32.372;2022-11-09T05:01:43;13.95;;;10.43;;
12896;SDS011;6516;35.028;32.372;2022-11-09T05:04:11;14.87;;;10.03;;
12896;SDS011;6516;35.028;32.372;2022-11-09T05:06:39;16.13;;;10.75;;
12896;SDS011;6516;35.028;32.372;2022-11-09T05:09:07;17.25;;;11.50;;
12896;SDS011;6516;35.028;32.372;2022-11-09T05:11:36;18.05;;;11.52;;
12896;SDS011;6516;35.028;32.372;2022-11-09T05:14:04;14.93;;;10.68;;
12896;SDS011;6516;35.028;32.372;2022-11-09T05:16:32;15.73;;;11.27;;
12896;SDS011;6516;35.028;32.372;2022-11-09T05:19:00;16.65;;;10.23;;
12896;SDS011;6516;35.028;32.372;2022-11-09T05:21:27;16.02;;;10.80;;
12896;SDS011;6516;35.028;32.372;2022-11-09T05:23:55;15.23;;;9.85;;
12896;SDS011;6516;35.028;32.372;2022-11-09T05:26:28;14.75;;;10.68;;
12896;SDS011;6516;35.028;32.372;2022-11-09T05:28:59;14.67;;;9.77;;
12896;SDS011;6516;35.028;32.372;2022-11-09T05:31:28;15.10;;;9.77;;
12896;SDS011;6516;35.028;32.372;2022-11-09T05:33:56;15.27;;;10.63;;
12896;SDS011;6516;35.028;32.372;2022-11-09T05:36:25;15.95;;;9.85;;
12896;SDS011;6516;35.028;32.372;2022-11-09T05:38:54;17.38;;;10.63;;
12896;SDS011;6516;35.028;32.372;2022-11-09T05:41:23;17.87;;;10.13;;
12896;SDS011;6516;35.028;32.372;2022-11-09T05:43:50;13.93;;;9.75;;
12896;SDS011;6516;35.028;32.372;2022-11-09T05:46:20;14.82;;;10.20;;
12896;SDS011;6516;35.028;32.372;2022-11-09T05:48:48;15.13;;;10.15;;
12896;SDS011;6516;35.028;32.372;2022-11-09T05:51:15;16.67;;;9.90;;
12896;SDS011;6516;35.028;32.372;2022-11-09T05:53:43;13.03;;;8.90;;
12896;SDS011;6516;35.028;32.372;2022-11-09T05:56:11;13.52;;;9.52;;
12896;SDS011;6516;35.028;32.372;2022-11-09T05:58:40;12.20;;;8.70;;
12896;SDS011;6516;35.028;32.372;2022-11-09T06:01:08;12.13;;;8.40;;
12896;SDS011;6516;35.028;32.372;2022-11-09T06:03:40;11.98;;;8.60;;
12896;SDS011;6516;35.028;32.372;2022-11-09T06:06:08;11.63;;;8.10;;
12896;SDS011;6516;35.028;32.372;2022-11-09T06:08:40;14.43;;;8.77;;
12896;SDS011;6516;35.028;32.372;2022-11-09T06:11:08;12.82;;;8.18;;
12896;SDS011;6516;35.028;32.372;2022-11-09T06:13:37;12.70;;;8.77;;
12896;SDS011;6516;35.028;32.372;2022-11-09T06:16:05;14.05;;;9.10;;
12896;SDS011;6516;35.028;32.372;2022-11-09T06:18:35;12.33;;;8.27;;
12896;SDS011;6516;35.028;32.372;2022-11-09T06:21:05;15.35;;;8.10;;
12896;SDS011;6516;35.028;32.372;2022-11-09T06:23:33;11.07;;;7.65;;
12896;SDS011;6516;35.028;32.372;2022-11-09T06:26:01;12.77;;;7.28;;
12896;SDS011;6516;35.028;32.372;2022-11-09T06:28:31;13.40;;;7.63;;
12896;SDS011;6516;35.028;32.372;2022-11-09T06:31:00;11.77;;;8.27;;
12896;SDS011;6516;35.028;32.372;2022-11-09T06:33:30;11.85;;;8.00;;
12896;SDS011;6516;35.028;32.372;2022-11-09T06:36:00;10.23;;;8.07;;
12896;SDS011;6516;35.028;32.372;2022-11-09T06:38:30;13.35;;;7.90;;
12896;SDS011;6516;35.028;32.372;2022-11-09T06:40:58;13.23;;;8.18;;
12896;SDS011;6516;35.028;32.372;2022-11-09T06:43:26;11.17;;;7.93;;
12896;SDS011;6516;35.028;32.372;2022-11-09T06:45:54;10.90;;;7.38;;
12896;SDS011;6516;35.028;32.372;2022-11-09T06:48:22;11.85;;;7.93;;
12896;SDS011;6516;35.028;32.372;2022-11-09T06:50:50;12.20;;;7.55;;
12896;SDS011;6516;35.028;32.372;2022-11-09T06:53:18;13.70;;;7.78;;
12896;SDS011;6516;35.028;32.372;2022-11-09T06:55:47;10.30;;;7.67;;
12896;SDS011;6516;35.028;32.372;2022-11-09T06:58:15;12.45;;;8.02;;
12896;SDS011;6516;35.028;32.372;2022-11-09T07:00:44;12.52;;;8.73;;
12896;SDS011;6516;35.028;32.372;2022-11-09T07:03:12;13.60;;;8.00;;
12896;SDS011;6516;35.028;32.372;2022-11-09T07:05:41;13.13;;;7.85;;
12896;SDS011;6516;35.028;32.372;2022-11-09T07:08:09;15.73;;;8.67;;
12896;SDS011;6516;35.028;32.372;2022-11-09T07:10:37;12.48;;;8.07;;
12896;SDS011;6516;35.028;32.372;2022-11-09T07:13:06;12.50;;;7.78;;
12896;SDS011;6516;35.028;32.372;2022-11-09T07:15:35;12.10;;;7.90;;
12896;SDS011;6516;35.028;32.372;2022-11-09T07:18:05;13.38;;;8.13;;
12896;SDS011;6516;35.028;32.372;2022-11-09T07:20:37;11.13;;;7.50;;
12896;SDS011;6516;35.028;32.372;2022-11-09T07:23:05;13.02;;;8.10;;
12896;SDS011;6516;35.028;32.372;2022-11-09T07:25:32;11.60;;;7.20;;
12896;SDS011;6516;35.028;32.372;2022-11-09T07:28:03;12.63;;;8.30;;
12896;SDS011;6516;35.028;32.372;2022-11-09T07:30:34;11.10;;;7.70;;
12896;SDS011;6516;35.028;32.372;2022-11-09T07:33:02;13.03;;;8.07;;
12896;SDS011;6516;35.028;32.372;2022-11-09T07:35:35;10.98;;;7.75;;
12896;SDS011;6516;35.028;32.372;2022-11-09T07:38:04;14.85;;;8.20;;
12896;SDS011;6516;35.028;32.372;2022-11-09T07:40:32;10.90;;;7.90;;
12896;SDS011;6516;35.028;32.372;2022-11-09T07:43:00;11.52;;;7.93;;
12896;SDS011;6516;35.028;32.372;2022-11-09T07:45:32;12.37;;;7.80;;
12896;SDS011;6516;35.028;32.372;2022-11-09T07:48:02;12.32;;;7.57;;
12896;SDS011;6516;35.028;32.372;2022-11-09T07:50:33;12.45;;;8.00;;
12896;SDS011;6516;35.028;32.372;2022-11-09T07:53:03;10.80;;;7.40;;
12896;SDS011;6516;35.028;32.372;2022-11-09T07:55:33;13.40;;;8.50;;
12896;SDS011;6516;35.028;32.372;2022-11-09T07:58:01;12.73;;;8.13;;
12896;SDS011;6516;35.028;32.372;2022-11-09T08:00:32;14.13;;;8.02;;
12896;SDS011;6516;35.028;32.372;2022-11-09T08:03:02;12.40;;;8.45;;
12896;SDS011;6516;35.028;32.372;2022-11-09T08:05:30;12.18;;;7.93;;
12896;SDS011;6516;35.028;32.372;2022-11-09T08:07:59;10.68;;;7.75;;
12896;SDS011;6516;35.028;32.372;2022-11-09T08:10:30;10.93;;;7.83;;
12896;SDS011;6516;35.028;32.372;2022-11-09T08:13:01;11.35;;;7.50;;
12896;SDS011;6516;35.028;32.372;2022-11-09T08:15:34;11.05;;;8.27;;
12896;SDS011;6516;35.028;32.372;2022-11-09T08:18:03;11.20;;;8.00;;
12896;SDS011;6516;35.028;32.372;2022-11-09T08:20:32;10.45;;;8.00;;
12896;SDS011;6516;35.028;32.372;2022-11-09T08:23:00;12.57;;;8.50;;
12896;SDS011;6516;35.028;32.372;2022-11-09T08:25:28;12.02;;;9.02;;
12896;SDS011;6516;35.028;32.372;2022-11-09T08:27:56;12.50;;;9.18;;
12896;SDS011;6516;35.028;32.372;2022-11-09T08:30:24;13.30;;;8.63;;
12896;SDS011;6516;35.028;32.372;2022-11-09T08:32:53;14.02;;;8.40;;
12896;SDS011;6516;35.028;32.372;2022-11-09T08:35:22;10.67;;;8.33;;
12896;SDS011;6516;35.028;32.372;2022-11-09T08:37:51;13.00;;;8.50;;
12896;SDS011;6516;35.028;32.372;2022-11-09T08:40:20;12.20;;;8.80;;
12896;SDS011;6516;35.028;32.372;2022-11-09T08:42:50;14.68;;;8.80;;
12896;SDS011;6516;35.028;32.372;2022-11-09T08:45:19;12.75;;;9.15;;
12896;SDS011;6516;35.028;32.372;2022-11-09T08:47:47;13.27;;;8.93;;
12896;SDS011;6516;35.028;32.372;2022-11-09T08:50:16;12.35;;;9.27;;
12896;SDS011;6516;35.028;32.372;2022-11-09T08:52:44;12.70;;;9.30;;
12896;SDS011;6516;35.028;32.372;2022-11-09T08:55:12;13.52;;;9.20;;
12896;SDS011;6516;35.028;32.372;2022-11-09T08:57:40;12.02;;;9.27;;
12896;SDS011;6516;35.028;32.372;2022-11-09T09:00:08;12.87;;;9.03;;
12896;SDS011;6516;35.028;32.372;2022-11-09T09:02:37;12.38;;;9.32;;
12896;SDS011;6516;35.028;32.372;2022-11-09T09:05:05;13.23;;;9.15;;
12896;SDS011;6516;35.028;32.372;2022-11-09T09:07:35;11.82;;;7.55;;
12896;SDS011;6516;35.028;32.372;2022-11-09T09:10:03;13.77;;;7.35;;
12896;SDS011;6516;35.028;32.372;2022-11-09T09:12:32;12.80;;;7.33;;
12896;SDS011;6516;35.028;32.372;2022-11-09T09:15:00;13.65;;;7.00;;
12896;SDS011;6516;35.028;32.372;2022-11-09T09:17:28;11.93;;;7.78;;
12896;SDS011;6516;35.028;32.372;2022-11-09T09:19:56;13.05;;;7.63;;
12896;SDS011;6516;35.028;32.372;2022-11-09T09:25:25;9.90;;;6.40;;
12896;SDS011;6516;35.028;32.372;2022-11-09T09:27:54;11.63;;;6.22;;
12896;SDS011;6516;35.028;32.372;2022-11-09T09:30:22;12.48;;;6.63;;
12896;SDS011;6516;35.028;32.372;2022-11-09T09:32:50;11.18;;;6.25;;
12896;SDS011;6516;35.028;32.372;2022-11-09T09:35:18;12.10;;;6.63;;
12896;SDS011;6516;35.028;32.372;2022-11-09T09:37:46;9.17;;;6.27;;
12896;SDS011;6516;35.028;32.372;2022-11-09T09:40:21;12.60;;;6.72;;
12896;SDS011;6516;35.028;32.372;2022-11-09T09:42:56;9.85;;;6.57;;
12896;SDS011;6516;35.028;32.372;2022-11-09T09:45:24;10.35;;;6.72;;
12896;SDS011;6516;35.028;32.372;2022-11-09T09:47:57;8.50;;;5.82;;
12896;SDS011;6516;35.028;32.372;2022-11-09T09:50:44;12.73;;;6.63;;
12896;SDS011;6516;35.028;32.372;2022-11-09T09:53:16;11.00;;;6.60;;
12896;SDS011;6516;35.028;32.372;2022-11-09T09:55:55;12.35;;;6.63;;
12896;SDS011;6516;35.028;32.372;2022-11-09T09:58:30;10.57;;;6.63;;
12896;SDS011;6516;35.028;32.372;2022-11-09T10:01:02;12.05;;;6.57;;
12896;SDS011;6516;35.028;32.372;2022-11-09T10:03:39;11.63;;;6.83;;
12896;SDS011;6516;35.028;32.372;2022-11-09T10:06:11;10.38;;;6.30;;
12896;SDS011;6516;35.028;32.372;2022-11-09T10:08:57;10.70;;;6.72;;
12896;SDS011;6516;35.028;32.372;2022-11-09T10:11:35;11.13;;;7.07;;
12896;SDS011;6516;35.028;32.372;2022-11-09T10:17:19;11.17;;;6.73;;
12896;SDS011;6516;35.028;32.372;2022-11-09T10:20:02;11.30;;;6.85;;
12896;SDS011;6516;35.028;32.372;2022-11-09T10:22:47;10.52;;;6.93;;
12896;SDS011;6516;35.028;32.372;2022-11-09T10:25:24;11.20;;;6.95;;
12896;SDS011;6516;35.028;32.372;2022-11-09T10:27:56;10.77;;;6.82;;
12896;SDS011;6516;35.028;32.372;2022-11-09T10:30:27;12.17;;;7.60;;
12896;SDS011;6516;35.028;32.372;2022-11-09T10:32:56;12.10;;;7.72;;
12896;SDS011;6516;35.028;32.372;2022-11-09T10:35:41;11.45;;;7.80;;
12896;SDS011;6516;35.028;32.372;2022-11-09T10:38:14;9.90;;;7.10;;
12896;SDS011;6516;35.028;32.372;2022-11-09T10:40:49;11.57;;;7.65;;
12896;SDS011;6516;35.028;32.372;2022-11-09T10:43:24;12.00;;;7.57;;
12896;SDS011;6516;35.028;32.372;2022-11-09T10:45:56;10.85;;;7.43;;
12896;SDS011;6516;35.028;32.372;2022-11-09T10:48:29;10.80;;;7.47;;
12896;SDS011;6516;35.028;32.372;2022-11-09T10:51:00;10.38;;;7.22;;
12896;SDS011;6516;35.028;32.372;2022-11-09T10:53:29;11.85;;;7.70;;
12896;SDS011;6516;35.028;32.372;2022-11-09T10:56:04;11.07;;;7.80;;
12896;SDS011;6516;35.028;32.372;2022-11-09T10:58:47;13.25;;;7.80;;
12896;SDS011;6516;35.028;32.372;2022-11-09T11:01:16;11.40;;;8.00;;
12896;SDS011;6516;35.028;32.372;2022-11-09T11:03:48;13.20;;;8.60;;
12896;SDS011;6516;35.028;32.372;2022-11-09T11:06:18;14.20;;;8.90;;
12896;SDS011;6516;35.028;32.372;2022-11-09T11:11:42;13.98;;;8.52;;
12896;SDS011;6516;35.028;32.372;2022-11-09T11:14:13;12.57;;;8.73;;
12896;SDS011;6516;35.028;32.372;2022-11-09T11:16:45;13.98;;;8.93;;
12896;SDS011;6516;35.028;32.372;2022-11-09T11:19:24;13.13;;;9.43;;
12896;SDS011;6516;35.028;32.372;2022-11-09T11:22:07;13.00;;;9.07;;
12896;SDS011;6516;35.028;32.372;2022-11-09T11:24:52;12.82;;;8.68;;
12896;SDS011;6516;35.028;32.372;2022-11-09T11:27:33;12.73;;;8.93;;
12896;SDS011;6516;35.028;32.372;2022-11-09T11:30:09;13.55;;;9.02;;
12896;SDS011;6516;35.028;32.372;2022-11-09T11:32:41;14.95;;;10.00;;
12896;SDS011;6516;35.028;32.372;2022-11-09T11:35:13;15.30;;;9.43;;
12896;SDS011;6516;35.028;32.372;2022-11-09T11:37:45;12.98;;;8.63;;
12896;SDS011;6516;35.028;32.372;2022-11-09T11:40:25;11.90;;;9.00;;
12896;SDS011;6516;35.028;32.372;2022-11-09T11:43:02;13.60;;;8.88;;
12896;SDS011;6516;35.028;32.372;2022-11-09T11:45:55;12.35;;;8.43;;
12896;SDS011;6516;35.028;32.372;2022-11-09T11:51:55;11.43;;;8.93;;
12896;SDS011;6516;35.028;32.372;2022-11-09T11:54:30;11.38;;;8.52;;
12896;SDS011;6516;35.028;32.372;2022-11-09T11:57:10;12.00;;;8.55;;
12896;SDS011;6516;35.028;32.372;2022-11-09T11:59:50;13.38;;;8.30;;
12896;SDS011;6516;35.028;32.372;2022-11-09T12:02:42;12.67;;;9.00;;
12896;SDS011;6516;35.028;32.372;2022-11-09T12:09:15;12.57;;;8.55;;
12896;SDS011;6516;35.028;32.372;2022-11-09T12:12:11;12.63;;;8.27;;
12896;SDS011;6516;35.028;32.372;2022-11-09T12:14:50;13.00;;;8.45;;
12896;SDS011;6516;35.028;32.372;2022-11-09T12:17:48;11.93;;;8.50;;
12896;SDS011;6516;35.028;32.372;2022-11-09T12:20:26;13.55;;;8.23;;
12896;SDS011;6516;35.028;32.372;2022-11-09T12:23:04;14.30;;;9.05;;
12896;SDS011;6516;35.028;32.372;2022-11-09T12:25:49;12.57;;;8.30;;
12896;SDS011;6516;35.028;32.372;2022-11-09T12:28:33;13.55;;;8.77;;
12896;SDS011;6516;35.028;32.372;2022-11-09T12:31:22;13.10;;;8.40;;
12896;SDS011;6516;35.028;32.372;2022-11-09T12:34:01;10.55;;;7.90;;
12896;SDS011;6516;35.028;32.372;2022-11-09T12:36:36;11.68;;;8.50;;
12896;SDS011;6516;35.028;32.372;2022-11-09T12:39:11;13.18;;;8.60;;
12896;SDS011;6516;35.028;32.372;2022-11-09T12:41:48;13.73;;;8.98;;
12896;SDS011;6516;35.028;32.372;2022-11-09T12:44:18;11.10;;;8.53;;
12896;SDS011;6516;35.028;32.372;2022-11-09T12:46:53;11.93;;;9.00;;
12896;SDS011;6516;35.028;32.372;2022-11-09T12:49:31;11.43;;;8.35;;
12896;SDS011;6516;35.028;32.372;2022-11-09T12:52:04;12.82;;;8.35;;
12896;SDS011;6516;35.028;32.372;2022-11-09T12:54:34;12.15;;;8.77;;
12896;SDS011;6516;35.028;32.372;2022-11-09T12:57:07;13.03;;;8.97;;
12896;SDS011;6516;35.028;32.372;2022-11-09T12:59:44;12.13;;;8.77;;
12896;SDS011;6516;35.028;32.372;2022-11-09T13:02:26;13.27;;;8.48;;
12896;SDS011;6516;35.028;32.372;2022-11-09T13:04:59;11.88;;;8.57;;
12896;SDS011;6516;35.028;32.372;2022-11-09T13:07:30;12.85;;;8.73;;
12896;SDS011;6516;35.028;32.372;2022-11-09T13:10:24;12.87;;;8.53;;
12896;SDS011;6516;35.028;32.372;2022-11-09T13:13:03;12.10;;;8.38;;
12896;SDS011;6516;35.028;32.372;2022-11-09T13:16:07;11.07;;;8.00;;
12896;SDS011;6516;35.028;32.372;2022-11-09T13:18:52;12.15;;;7.30;;
12896;SDS011;6516;35.028;32.372;2022-11-09T13:21:37;13.73;;;8.85;;
12896;SDS011;6516;35.028;32.372;2022-11-09T13:27:33;12.30;;;8.48;;
12896;SDS011;6516;35.028;32.372;2022-11-09T13:33:18;11.95;;;8.27;;
12896;SDS011;6516;35.028;32.372;2022-11-09T13:38:47;13.20;;;8.80;;
12896;SDS011;6516;35.028;32.372;2022-11-09T13:41:57;11.63;;;8.57;;
12896;SDS011;6516;35.028;32.372;2022-11-09T13:44:25;13.75;;;9.15;;
12896;SDS011;6516;35.028;32.372;2022-11-09T13:46:54;13.18;;;9.13;;
12896;SDS011;6516;35.028;32.372;2022-11-09T13:55:24;12.40;;;9.25;;
12896;SDS011;6516;35.028;32.372;2022-11-09T13:57:58;13.18;;;9.27;;
12896;SDS011;6516;35.028;32.372;2022-11-09T14:00:32;12.52;;;9.05;;
12896;SDS011;6516;35.028;32.372;2022-11-09T14:03:00;13.15;;;9.27;;
12896;SDS011;6516;35.028;32.372;2022-11-09T14:05:38;12.50;;;9.10;;
12896;SDS011;6516;35.028;32.372;2022-11-09T14:08:08;13.52;;;8.80;;
12896;SDS011;6516;35.028;32.372;2022-11-09T14:11:05;14.20;;;9.70;;
12896;SDS011;6516;35.028;32.372;2022-11-09T14:14:11;13.82;;;9.15;;
12896;SDS011;6516;35.028;32.372;2022-11-09T14:16:56;12.52;;;8.95;;
12896;SDS011;6516;35.028;32.372;2022-11-09T14:19:36;15.57;;;9.20;;
12896;SDS011;6516;35.028;32.372;2022-11-09T14:22:13;15.02;;;9.13;;
12896;SDS011;6516;35.028;32.372;2022-11-09T14:24:44;13.35;;;9.40;;
12896;SDS011;6516;35.028;32.372;2022-11-09T14:27:15;12.15;;;8.93;;
12896;SDS011;6516;35.028;32.372;2022-11-09T14:29:47;13.90;;;8.93;;
12896;SDS011;6516;35.028;32.372;2022-11-09T14:32:23;12.73;;;9.10;;
12896;SDS011;6516;35.028;32.372;2022-11-09T14:37:54;14.35;;;10.18;;
12896;SDS011;6516;35.028;32.372;2022-11-09T14:40:26;13.07;;;9.27;;
12896;SDS011;6516;35.028;32.372;2022-11-09T14:42:59;13.77;;;9.18;;
12896;SDS011;6516;35.028;32.372;2022-11-09T14:45:31;13.70;;;9.87;;
12896;SDS011;6516;35.028;32.372;2022-11-09T14:47:59;13.88;;;9.68;;
12896;SDS011;6516;35.028;32.372;2022-11-09T14:50:28;13.13;;;9.40;;
12896;SDS011;6516;35.028;32.372;2022-11-09T14:52:59;14.60;;;9.00;;
12896;SDS011;6516;35.028;32.372;2022-11-09T14:55:35;16.08;;;10.85;;
12896;SDS011;6516;35.028;32.372;2022-11-09T14:58:09;16.30;;;10.70;;
12896;SDS011;6516;35.028;32.372;2022-11-09T15:00:39;15.27;;;10.20;;
12896;SDS011;6516;35.028;32.372;2022-11-09T15:03:23;14.68;;;9.75;;
12896;SDS011;6516;35.028;32.372;2022-11-09T15:06:01;13.57;;;9.55;;
12896;SDS011;6516;35.028;32.372;2022-11-09T15:08:31;13.68;;;9.80;;
12896;SDS011;6516;35.028;32.372;2022-11-09T15:11:01;15.23;;;9.97;;
12896;SDS011;6516;35.028;32.372;2022-11-09T15:13:32;14.43;;;9.75;;
12896;SDS011;6516;35.028;32.372;2022-11-09T15:16:02;16.38;;;10.45;;
12896;SDS011;6516;35.028;32.372;2022-11-09T15:18:32;14.93;;;9.65;;
12896;SDS011;6516;35.028;32.372;2022-11-09T15:21:09;12.80;;;9.30;;
12896;SDS011;6516;35.028;32.372;2022-11-09T15:23:43;12.83;;;9.37;;
12896;SDS011;6516;35.028;32.372;2022-11-09T15:26:27;15.35;;;10.52;;
12896;SDS011;6516;35.028;32.372;2022-11-09T15:31:56;15.82;;;10.63;;
12896;SDS011;6516;35.028;32.372;2022-11-09T15:34:26;15.88;;;10.82;;